sensor_id;sensor_type;location;lat;lon;timestamp;pressure;altitude;pressure_sealevel;temperature;humidity
18765;BME280;9511;54.242;12.448;2024-03-08T00:02:14;102505.31;;;-1.04;100.00
18765;BME280;9511;54.242;12.448;2024-03-08T00:04:41;102503.50;;;-1.05;100.00
18765;BME280;9511;54.242;12.448;2024-03-08T00:07:10;102508.69;;;-1.05;100.00
18765;BME280;9511;54.242;12.448;2024-03-08T00:09:38;102500.88;;;-1.05;100.00
18765;BME280;9511;54.242;12.448;2024-03-08T00:12:05;102505.50;;;-1.02;100.00
18765;BME280;9511;54.242;12.448;2024-03-08T00:14:32;102505.78;;;-0.99;100.00
18765;BME280;9511;54.242;12.448;2024-03-08T00:17:01;102504.72;;;-1.01;100.00
18765;BME280;9511;54.242;12.448;2024-03-08T00:19:29;102512.97;;;-1.05;100.00
18765;BME280;9511;54.242;12.448;2024-03-08T00:21:56;102509.91;;;-1.10;100.00
18765;BME280;9511;54.242;12.448;2024-03-08T00:24:24;102510.53;;;-1.13;100.00
18765;BME280;9511;54.242;12.448;2024-03-08T00:26:52;102511.88;;;-1.16;100.00
18765;BME280;9511;54.242;12.448;2024-03-08T00:29:20;102509.91;;;-1.19;100.00
18765;BME280;9511;54.242;12.448;2024-03-08T00:31:48;102514.78;;;-1.22;100.00
18765;BME280;9511;54.242;12.448;2024-03-08T00:34:15;102515.09;;;-1.27;100.00
18765;BME280;9511;54.242;12.448;2024-03-08T00:36:42;102509.28;;;-1.34;100.00
18765;BME280;9511;54.242;12.448;2024-03-08T00:39:09;102503.81;;;-1.37;100.00
18765;BME280;9511;54.242;12.448;2024-03-08T00:41:39;102505.31;;;-1.39;100.00
18765;BME280;9511;54.242;12.448;2024-03-08T00:44:06;102497.09;;;-1.43;100.00
18765;BME280;9511;54.242;12.448;2024-03-08T00:46:33;102489.59;;;-1.49;100.00
18765;BME280;9511;54.242;12.448;2024-03-08T00:49:00;102501.34;;;-1.52;100.00
18765;BME280;9511;54.242;12.448;2024-03-08T00:51:28;102499.47;;;-1.62;100.00
18765;BME280;9511;54.242;12.448;2024-03-08T00:53:55;102495.81;;;-1.64;100.00
18765;BME280;9511;54.242;12.448;2024-03-08T00:56:22;102495.81;;;-1.64;100.00
18765;BME280;9511;54.242;12.448;2024-03-08T00:58:52;102497.03;;;-1.69;100.00
18765;BME280;9511;54.242;12.448;2024-03-08T01:01:19;102499.63;;;-1.69;100.00
18765;BME280;9511;54.242;12.448;2024-03-08T01:03:46;102489.69;;;-1.73;100.00
18765;BME280;9511;54.242;12.448;2024-03-08T01:06:14;102487.84;;;-1.74;100.00
18765;BME280;9511;54.242;12.448;2024-03-08T01:08:41;102484.78;;;-1.79;100.00
18765;BME280;9511;54.242;12.448;2024-03-08T01:11:09;102488.00;;;-1.81;100.00
18765;BME280;9511;54.242;12.448;2024-03-08T01:13:37;102481.75;;;-1.83;100.00
18765;BME280;9511;54.242;12.448;2024-03-08T01:16:06;102481.91;;;-1.82;100.00
18765;BME280;9511;54.242;12.448;2024-03-08T01:18:33;102478.41;;;-1.82;100.00
18765;BME280;9511;54.242;12.448;2024-03-08T01:21:00;102472.88;;;-1.85;100.00
18765;BME280;9511;54.242;12.448;2024-03-08T01:23:27;102472.88;;;-1.85;100.00
18765;BME280;9511;54.242;12.448;2024-03-08T01:25:55;102464.97;;;-1.87;100.00
18765;BME280;9511;54.242;12.448;2024-03-08T01:28:23;102460.69;;;-1.87;100.00
18765;BME280;9511;54.242;12.448;2024-03-08T01:30:50;102460.34;;;-1.90;100.00
18765;BME280;9511;54.242;12.448;2024-03-08T01:33:23;102458.53;;;-1.91;100.00
18765;BME280;9511;54.242;12.448;2024-03-08T01:35:51;102446.94;;;-1.85;100.00
18765;BME280;9511;54.242;12.448;2024-03-08T01:38:18;102449.53;;;-1.85;100.00
18765;BME280;9511;54.242;12.448;2024-03-08T01:40:47;102452.13;;;-1.85;100.00
18765;BME280;9511;54.242;12.448;2024-03-08T01:43:20;102445.13;;;-1.87;100.00
18765;BME280;9511;54.242;12.448;2024-03-08T01:45:48;102448.16;;;-1.91;100.00
18765;BME280;9511;54.242;12.448;2024-03-08T01:48:16;102441.47;;;-1.89;100.00
18765;BME280;9511;54.242;12.448;2024-03-08T01:50:46;102434.59;;;-1.88;100.00
18765;BME280;9511;54.242;12.448;2024-03-08T01:53:13;102441.47;;;-1.89;100.00
18765;BME280;9511;54.242;12.448;2024-03-08T01:55:42;102431.81;;;-1.90;100.00
18765;BME280;9511;54.242;12.448;2024-03-08T01:58:09;102423.75;;;-1.93;100.00
18765;BME280;9511;54.242;12.448;2024-03-08T02:00:39;102422.22;;;-1.91;100.00
18765;BME280;9511;54.242;12.448;2024-03-08T02:03:07;102424.53;;;-1.85;100.00
18765;BME280;9511;54.242;12.448;2024-03-08T02:05:34;102420.75;;;-1.71;100.00
18765;BME280;9511;54.242;12.448;2024-03-08T02:08:04;102415.56;;;-1.54;100.00
18765;BME280;9511;54.242;12.448;2024-03-08T02:10:33;102410.38;;;-1.37;100.00
18765;BME280;9511;54.242;12.448;2024-03-08T02:13:01;102412.16;;;-1.18;100.00
18765;BME280;9511;54.242;12.448;2024-03-08T02:15:49;102414.88;;;-0.99;100.00
18765;BME280;9511;54.242;12.448;2024-03-08T02:18:16;102418.06;;;-0.85;100.00
18765;BME280;9511;54.242;12.448;2024-03-08T02:20:45;102410.41;;;-0.74;100.00
18765;BME280;9511;54.242;12.448;2024-03-08T02:23:13;102412.63;;;-0.60;100.00
18765;BME280;9511;54.242;12.448;2024-03-08T02:25:40;102411.66;;;-0.52;100.00
18765;BME280;9511;54.242;12.448;2024-03-08T02:28:10;102405.19;;;-0.38;100.00
18765;BME280;9511;54.242;12.448;2024-03-08T02:30:38;102396.28;;;-0.32;100.00
18765;BME280;9511;54.242;12.448;2024-03-08T02:33:05;102391.97;;;-0.22;100.00
18765;BME280;9511;54.242;12.448;2024-03-08T02:35:32;102391.19;;;-0.21;100.00
18765;BME280;9511;54.242;12.448;2024-03-08T02:38:01;102389.78;;;-0.18;100.00
18765;BME280;9511;54.242;12.448;2024-03-08T02:40:29;102386.69;;;-0.14;100.00
18765;BME280;9511;54.242;12.448;2024-03-08T02:42:56;102381.16;;;-0.08;100.00
18765;BME280;9511;54.242;12.448;2024-03-08T02:45:24;102387.72;;;-0.03;100.00
18765;BME280;9511;54.242;12.448;2024-03-08T02:47:51;102379.91;;;-0.03;100.00
18765;BME280;9511;54.242;12.448;2024-03-08T02:50:18;102383.28;;;-0.04;100.00
18765;BME280;9511;54.242;12.448;2024-03-08T02:52:45;102375.91;;;0.01;100.00
18765;BME280;9511;54.242;12.448;2024-03-08T02:55:14;102382.03;;;0.01;100.00
18765;BME280;9511;54.242;12.448;2024-03-08T02:57:42;102373.44;;;0.02;100.00
18765;BME280;9511;54.242;12.448;2024-03-08T03:00:10;102366.69;;;0.04;100.00
18765;BME280;9511;54.242;12.448;2024-03-08T03:02:38;102370.78;;;0.11;100.00
18765;BME280;9511;54.242;12.448;2024-03-08T03:05:06;102371.06;;;0.14;100.00
18765;BME280;9511;54.242;12.448;2024-03-08T03:07:35;102367.81;;;0.16;100.00
18765;BME280;9511;54.242;12.448;2024-03-08T03:10:04;102361.88;;;0.17;100.00
18765;BME280;9511;54.242;12.448;2024-03-08T03:12:34;102363.47;;;0.25;100.00
18765;BME280;9511;54.242;12.448;2024-03-08T03:15:01;102360.56;;;0.22;100.00
18765;BME280;9511;54.242;12.448;2024-03-08T03:17:28;102359.84;;;0.23;100.00
18765;BME280;9511;54.242;12.448;2024-03-08T03:19:56;102348.78;;;0.26;100.00
18765;BME280;9511;54.242;12.448;2024-03-08T03:22:23;102352.41;;;0.28;100.00
18765;BME280;9511;54.242;12.448;2024-03-08T03:24:51;102352.06;;;0.34;100.00
18765;BME280;9511;54.242;12.448;2024-03-08T03:27:19;102352.06;;;0.34;100.00
18765;BME280;9511;54.242;12.448;2024-03-08T03:29:47;102356.78;;;0.38;100.00
18765;BME280;9511;54.242;12.448;2024-03-08T03:32:15;102356.56;;;0.45;100.00
18765;BME280;9511;54.242;12.448;2024-03-08T03:34:44;102357.63;;;0.47;100.00
18765;BME280;9511;54.242;12.448;2024-03-08T03:37:11;102348.91;;;0.46;100.00
18765;BME280;9511;54.242;12.448;2024-03-08T03:39:39;102356.56;;;0.45;100.00
18765;BME280;9511;54.242;12.448;2024-03-08T03:42:14;102351.34;;;0.45;100.00
18765;BME280;9511;54.242;12.448;2024-03-08T03:44:44;102353.69;;;0.42;100.00
18765;BME280;9511;54.242;12.448;2024-03-08T03:47:12;102348.91;;;0.46;100.00
18765;BME280;9511;54.242;12.448;2024-03-08T03:49:40;102348.13;;;0.47;100.00
18765;BME280;9511;54.242;12.448;2024-03-08T03:52:07;102362.06;;;0.48;100.00
18765;BME280;9511;54.242;12.448;2024-03-08T03:54:34;102356.06;;;0.49;100.00
18765;BME280;9511;54.242;12.448;2024-03-08T03:57:02;102357.22;;;0.42;100.00
18765;BME280;9511;54.242;12.448;2024-03-08T03:59:29;102350.44;;;0.44;100.00
18765;BME280;9511;54.242;12.448;2024-03-08T04:01:57;102347.16;;;0.37;100.00
18765;BME280;9511;54.242;12.448;2024-03-08T04:04:25;102345.75;;;0.40;100.00
18765;BME280;9511;54.242;12.448;2024-03-08T04:06:53;102344.31;;;0.44;100.00
18765;BME280;9511;54.242;12.448;2024-03-08T04:09:20;102348.63;;;0.43;100.00
18765;BME280;9511;54.242;12.448;2024-03-08T04:11:48;102344.31;;;0.44;100.00
18765;BME280;9511;54.242;12.448;2024-03-08T04:14:15;102344.31;;;0.44;100.00
18765;BME280;9511;54.242;12.448;2024-03-08T04:16:43;102348.63;;;0.43;100.00
18765;BME280;9511;54.242;12.448;2024-03-08T04:19:10;102354.13;;;0.46;100.00
18765;BME280;9511;54.242;12.448;2024-03-08T04:21:38;102344.31;;;0.44;100.00
18765;BME280;9511;54.242;12.448;2024-03-08T04:24:05;102342.00;;;0.47;100.00
18765;BME280;9511;54.242;12.448;2024-03-08T04:26:33;102349.28;;;0.41;100.00
18765;BME280;9511;54.242;12.448;2024-03-08T04:29:00;102345.75;;;0.40;100.00
18765;BME280;9511;54.242;12.448;2024-03-08T04:31:27;102349.88;;;0.38;100.00
18765;BME280;9511;54.242;12.448;2024-03-08T04:33:54;102346.38;;;0.38;100.00
18765;BME280;9511;54.242;12.448;2024-03-08T04:36:21;102346.38;;;0.38;100.00
18765;BME280;9511;54.242;12.448;2024-03-08T04:38:50;102344.78;;;0.30;100.00
18765;BME280;9511;54.242;12.448;2024-03-08T04:41:18;102339.69;;;0.31;100.00
18765;BME280;9511;54.242;12.448;2024-03-08T04:43:46;102341.75;;;0.25;100.00
18765;BME280;9511;54.242;12.448;2024-03-08T04:46:13;102332.25;;;0.25;100.00
18765;BME280;9511;54.242;12.448;2024-03-08T04:48:40;102333.94;;;0.25;100.00
18765;BME280;9511;54.242;12.448;2024-03-08T04:51:09;102326.69;;;0.31;100.00
18765;BME280;9511;54.242;12.448;2024-03-08T04:53:36;102326.19;;;0.35;100.00
18765;BME280;9511;54.242;12.448;2024-03-08T04:56:06;102324.78;;;0.39;100.00
18765;BME280;9511;54.242;12.448;2024-03-08T04:58:35;102332.09;;;0.43;100.00
18765;BME280;9511;54.242;12.448;2024-03-08T05:01:02;102328.59;;;0.23;100.00
18765;BME280;9511;54.242;12.448;2024-03-08T05:03:30;102323.09;;;0.20;100.00
18765;BME280;9511;54.242;12.448;2024-03-08T05:05:57;102328.78;;;0.16;100.00
18765;BME280;9511;54.242;12.448;2024-03-08T05:08:24;102322.19;;;0.20;100.00
18765;BME280;9511;54.242;12.448;2024-03-08T05:10:51;102326.41;;;0.28;100.00
18765;BME280;9511;54.242;12.448;2024-03-08T05:13:20;102326.03;;;0.34;100.00
18765;BME280;9511;54.242;12.448;2024-03-08T05:15:48;102323.72;;;0.37;100.00
18765;BME280;9511;54.242;12.448;2024-03-08T05:18:16;102326.34;;;0.37;100.00
18765;BME280;9511;54.242;12.448;2024-03-08T05:20:43;102325.78;;;0.31;100.00
18765;BME280;9511;54.242;12.448;2024-03-08T05:23:10;102328.25;;;0.29;100.00
18765;BME280;9511;54.242;12.448;2024-03-08T05:25:37;102325.47;;;0.28;100.00
18765;BME280;9511;54.242;12.448;2024-03-08T05:28:05;102319.00;;;0.33;100.00
18765;BME280;9511;54.242;12.448;2024-03-08T05:30:33;102320.09;;;0.35;100.00
18765;BME280;9511;54.242;12.448;2024-03-08T05:33:02;102319.91;;;0.33;100.00
18765;BME280;9511;54.242;12.448;2024-03-08T05:35:29;102319.66;;;0.30;100.00
18765;BME280;9511;54.242;12.448;2024-03-08T05:37:58;102310.94;;;0.30;100.00
18765;BME280;9511;54.242;12.448;2024-03-08T05:40:25;102309.81;;;0.36;100.00
18765;BME280;9511;54.242;12.448;2024-03-08T05:42:52;102316.16;;;0.30;100.00
18765;BME280;9511;54.242;12.448;2024-03-08T05:45:20;102310.94;;;0.30;100.00
18765;BME280;9511;54.242;12.448;2024-03-08T05:47:48;102308.91;;;0.36;100.00
18765;BME280;9511;54.242;12.448;2024-03-08T05:50:15;102306.41;;;0.37;100.00
18765;BME280;9511;54.242;12.448;2024-03-08T05:52:42;102321.91;;;0.36;100.00
18765;BME280;9511;54.242;12.448;2024-03-08T05:55:10;102313.25;;;0.26;100.00
18765;BME280;9511;54.242;12.448;2024-03-08T05:57:40;102309.31;;;0.21;100.00
18765;BME280;9511;54.242;12.448;2024-03-08T06:00:08;102310.38;;;0.23;100.00
18765;BME280;9511;54.242;12.448;2024-03-08T06:02:40;102309.59;;;0.24;100.00
18765;BME280;9511;54.242;12.448;2024-03-08T06:05:09;102317.84;;;0.29;100.00
18765;BME280;9511;54.242;12.448;2024-03-08T06:07:37;102315.63;;;0.34;100.00
18765;BME280;9511;54.242;12.448;2024-03-08T06:10:08;102320.84;;;0.34;100.00
18765;BME280;9511;54.242;12.448;2024-03-08T06:12:36;102317.31;;;0.33;100.00
18765;BME280;9511;54.242;12.448;2024-03-08T06:15:06;102317.69;;;0.86;100.00
18765;BME280;9511;54.242;12.448;2024-03-08T06:17:34;102315.56;;;0.71;100.00
18765;BME280;9511;54.242;12.448;2024-03-08T06:20:01;102320.63;;;0.41;100.00
18765;BME280;9511;54.242;12.448;2024-03-08T06:22:30;102333.25;;;0.17;100.00
18765;BME280;9511;54.242;12.448;2024-03-08T06:24:58;102323.66;;;0.26;100.00
18765;BME280;9511;54.242;12.448;2024-03-08T06:27:25;102333.66;;;0.41;100.00
18765;BME280;9511;54.242;12.448;2024-03-08T06:29:52;102331.06;;;0.41;100.00
18765;BME280;9511;54.242;12.448;2024-03-08T06:32:19;102326.03;;;0.34;100.00
18765;BME280;9511;54.242;12.448;2024-03-08T06:34:46;102325.28;;;0.35;100.00
18765;BME280;9511;54.242;12.448;2024-03-08T06:37:14;102325.41;;;0.36;100.00
18765;BME280;9511;54.242;12.448;2024-03-08T06:39:42;102325.50;;;0.86;100.00
18765;BME280;9511;54.242;12.448;2024-03-08T06:42:10;102322.13;;;1.16;100.00
18765;BME280;9511;54.242;12.448;2024-03-08T06:44:38;102319.09;;;1.11;100.00
18765;BME280;9511;54.242;12.448;2024-03-08T06:47:14;102313.38;;;1.25;100.00
18765;BME280;9511;54.242;12.448;2024-03-08T06:49:42;102313.69;;;1.39;100.00
18765;BME280;9511;54.242;12.448;2024-03-08T06:52:09;102314.44;;;1.38;100.00
18765;BME280;9511;54.242;12.448;2024-03-08T06:54:37;102321.13;;;1.44;100.00
18765;BME280;9511;54.242;12.448;2024-03-08T06:57:05;102315.75;;;1.43;100.00
18765;BME280;9511;54.242;12.448;2024-03-08T06:59:32;102320.22;;;1.44;100.00
18765;BME280;9511;54.242;12.448;2024-03-08T07:02:01;102318.06;;;1.19;100.00
18765;BME280;9511;54.242;12.448;2024-03-08T07:04:29;102317.94;;;0.78;100.00
18765;BME280;9511;54.242;12.448;2024-03-08T07:06:59;102319.88;;;0.71;100.00
18765;BME280;9511;54.242;12.448;2024-03-08T07:09:28;102318.19;;;0.71;100.00
18765;BME280;9511;54.242;12.448;2024-03-08T07:11:55;102315.34;;;0.78;100.00
18765;BME280;9511;54.242;12.448;2024-03-08T07:14:24;102317.94;;;0.78;100.00
18765;BME280;9511;54.242;12.448;2024-03-08T07:16:51;102322.72;;;0.74;100.00
18765;BME280;9511;54.242;12.448;2024-03-08T07:19:18;102316.13;;;0.77;100.00
18765;BME280;9511;54.242;12.448;2024-03-08T07:21:47;102324.41;;;0.73;100.00
18765;BME280;9511;54.242;12.448;2024-03-08T07:24:15;102323.56;;;0.54;100.00
18765;BME280;9511;54.242;12.448;2024-03-08T07:26:58;102316.66;;;0.55;100.00
18765;BME280;9511;54.242;12.448;2024-03-08T07:29:27;102327.66;;;0.42;100.00
18765;BME280;9511;54.242;12.448;2024-03-08T07:31:54;102320.22;;;0.36;100.00
18765;BME280;9511;54.242;12.448;2024-03-08T07:34:33;102316.34;;;0.41;100.00
18765;BME280;9511;54.242;12.448;2024-03-08T07:37:00;102310.13;;;0.49;100.00
18765;BME280;9511;54.242;12.448;2024-03-08T07:39:28;102313.75;;;0.51;100.00
18765;BME280;9511;54.242;12.448;2024-03-08T07:41:55;102314.28;;;0.47;100.00
18765;BME280;9511;54.242;12.448;2024-03-08T07:44:22;102315.75;;;0.54;100.00
18765;BME280;9511;54.242;12.448;2024-03-08T07:46:51;102312.84;;;0.41;100.00
18765;BME280;9511;54.242;12.448;2024-03-08T07:49:18;102306.19;;;0.63;100.00
18765;BME280;9511;54.242;12.448;2024-03-08T07:51:45;102302.25;;;0.68;100.00
18765;BME280;9511;54.242;12.448;2024-03-08T07:54:12;102300.44;;;0.67;100.00
18765;BME280;9511;54.242;12.448;2024-03-08T07:56:39;102299.66;;;0.68;100.00
18765;BME280;9511;54.242;12.448;2024-03-08T07:59:06;102298.38;;;0.73;100.00
18765;BME280;9511;54.242;12.448;2024-03-08T08:01:33;102287.97;;;0.73;100.00
18765;BME280;9511;54.242;12.448;2024-03-08T08:04:02;102293.72;;;0.79;100.00
18765;BME280;9511;54.242;12.448;2024-03-08T08:06:29;102293.88;;;0.91;100.00
18765;BME280;9511;54.242;12.448;2024-03-08T08:08:57;102293.78;;;1.00;100.00
18765;BME280;9511;54.242;12.448;2024-03-08T08:11:26;102293.78;;;1.00;100.00
18765;BME280;9511;54.242;12.448;2024-03-08T08:13:53;102290.84;;;0.76;100.00
18765;BME280;9511;54.242;12.448;2024-03-08T08:16:22;102291.69;;;0.96;100.00
18765;BME280;9511;54.242;12.448;2024-03-08T08:18:50;102290.91;;;0.87;100.00
18765;BME280;9511;54.242;12.448;2024-03-08T08:21:20;102289.31;;;0.89;100.00
18765;BME280;9511;54.242;12.448;2024-03-08T08:23:48;102286.38;;;1.04;100.00
18765;BME280;9511;54.242;12.448;2024-03-08T08:26:15;102290.56;;;1.13;100.00
18765;BME280;9511;54.242;12.448;2024-03-08T08:28:42;102289.19;;;1.26;100.00
18765;BME280;9511;54.242;12.448;2024-03-08T08:31:12;102289.94;;;1.36;100.00
18765;BME280;9511;54.242;12.448;2024-03-08T08:33:39;102287.75;;;1.40;100.00
18765;BME280;9511;54.242;12.448;2024-03-08T08:36:06;102288.66;;;1.41;100.00
18765;BME280;9511;54.242;12.448;2024-03-08T08:38:35;102289.69;;;1.53;100.00
18765;BME280;9511;54.242;12.448;2024-03-08T08:41:03;102283.19;;;1.58;100.00
18765;BME280;9511;54.242;12.448;2024-03-08T08:43:32;102282.53;;;1.50;100.00
18765;BME280;9511;54.242;12.448;2024-03-08T08:45:59;102278.50;;;1.64;100.00
18765;BME280;9511;54.242;12.448;2024-03-08T08:48:27;102281.63;;;1.70;100.00
18765;BME280;9511;54.242;12.448;2024-03-08T08:50:55;102278.38;;;1.63;100.00
18765;BME280;9511;54.242;12.448;2024-03-08T08:53:22;102277.31;;;1.81;100.00
18765;BME280;9511;54.242;12.448;2024-03-08T08:55:51;102270.91;;;1.98;100.00
18765;BME280;9511;54.242;12.448;2024-03-08T08:58:19;102268.06;;;1.84;100.00
18765;BME280;9511;54.242;12.448;2024-03-08T09:00:46;102269.31;;;2.00;100.00
18765;BME280;9511;54.242;12.448;2024-03-08T09:03:13;102262.38;;;2.10;100.00
18765;BME280;9511;54.242;12.448;2024-03-08T09:05:41;102263.06;;;2.08;100.00
18765;BME280;9511;54.242;12.448;2024-03-08T09:08:08;102259.91;;;2.12;100.00
18765;BME280;9511;54.242;12.448;2024-03-08T09:10:35;102249.31;;;2.21;100.00
18765;BME280;9511;54.242;12.448;2024-03-08T09:13:06;102243.00;;;2.39;100.00
18765;BME280;9511;54.242;12.448;2024-03-08T09:15:35;102245.03;;;2.53;100.00
18765;BME280;9511;54.242;12.448;2024-03-08T09:18:06;102249.63;;;2.46;100.00
18765;BME280;9511;54.242;12.448;2024-03-08T09:20:34;102249.16;;;2.29;100.00
18765;BME280;9511;54.242;12.448;2024-03-08T09:23:02;102241.25;;;2.50;100.00
18765;BME280;9511;54.242;12.448;2024-03-08T09:25:30;102238.38;;;2.79;100.00
18765;BME280;9511;54.242;12.448;2024-03-08T09:27:58;102238.75;;;2.83;100.00
18765;BME280;9511;54.242;12.448;2024-03-08T09:30:27;102237.84;;;3.05;100.00
18765;BME280;9511;54.242;12.448;2024-03-08T09:32:54;102232.66;;;3.16;100.00
18765;BME280;9511;54.242;12.448;2024-03-08T09:35:21;102230.31;;;3.31;100.00
18765;BME280;9511;54.242;12.448;2024-03-08T09:37:49;102227.28;;;3.49;100.00
18765;BME280;9511;54.242;12.448;2024-03-08T09:40:17;102229.47;;;3.20;100.00
18765;BME280;9511;54.242;12.448;2024-03-08T09:42:45;102226.59;;;3.39;100.00
18765;BME280;9511;54.242;12.448;2024-03-08T09:45:12;102221.91;;;3.92;100.00
18765;BME280;9511;54.242;12.448;2024-03-08T09:47:43;102220.66;;;4.34;100.00
18765;BME280;9511;54.242;12.448;2024-03-08T09:50:11;102221.25;;;4.30;100.00
18765;BME280;9511;54.242;12.448;2024-03-08T09:52:40;102216.56;;;4.03;100.00
18765;BME280;9511;54.242;12.448;2024-03-08T09:55:08;102211.66;;;3.84;100.00
18765;BME280;9511;54.242;12.448;2024-03-08T09:57:37;102220.53;;;3.74;100.00
18765;BME280;9511;54.242;12.448;2024-03-08T10:00:05;102202.06;;;3.72;100.00
18765;BME280;9511;54.242;12.448;2024-03-08T10:02:46;102207.22;;;4.18;100.00
18765;BME280;9511;54.242;12.448;2024-03-08T10:05:14;102197.78;;;4.20;100.00
18765;BME280;9511;54.242;12.448;2024-03-08T10:07:41;102198.56;;;4.31;100.00
18765;BME280;9511;54.242;12.448;2024-03-08T10:10:08;102187.53;;;4.11;100.00
18765;BME280;9511;54.242;12.448;2024-03-08T10:12:38;102190.41;;;4.63;100.00
18765;BME280;9511;54.242;12.448;2024-03-08T10:15:06;102185.75;;;4.95;99.03
18765;BME280;9511;54.242;12.448;2024-03-08T10:17:34;102179.69;;;5.46;97.94
18765;BME280;9511;54.242;12.448;2024-03-08T10:20:03;102176.09;;;5.84;96.68
18765;BME280;9511;54.242;12.448;2024-03-08T10:22:40;102167.72;;;5.90;94.70
18765;BME280;9511;54.242;12.448;2024-03-08T10:25:09;102159.91;;;6.03;93.29
18765;BME280;9511;54.242;12.448;2024-03-08T10:27:38;102163.19;;;6.13;92.50
18765;BME280;9511;54.242;12.448;2024-03-08T10:30:06;102151.09;;;6.02;91.17
18765;BME280;9511;54.242;12.448;2024-03-08T10:32:38;102148.56;;;6.04;90.59
18765;BME280;9511;54.242;12.448;2024-03-08T10:35:08;102143.16;;;5.89;89.94
18765;BME280;9511;54.242;12.448;2024-03-08T10:37:43;102141.16;;;5.72;89.46
18765;BME280;9511;54.242;12.448;2024-03-08T10:40:15;102138.16;;;6.05;89.28
18765;BME280;9511;54.242;12.448;2024-03-08T10:42:51;102136.66;;;6.09;89.15
18765;BME280;9511;54.242;12.448;2024-03-08T10:45:29;102125.19;;;6.35;88.76
18765;BME280;9511;54.242;12.448;2024-03-08T10:48:07;102120.00;;;6.50;88.00
18765;BME280;9511;54.242;12.448;2024-03-08T10:50:37;102126.59;;;6.43;86.24
18765;BME280;9511;54.242;12.448;2024-03-08T10:53:06;102124.72;;;6.55;85.86
18765;BME280;9511;54.242;12.448;2024-03-08T10:55:33;102121.44;;;6.73;85.47
18765;BME280;9511;54.242;12.448;2024-03-08T10:58:03;102119.44;;;7.11;84.67
18765;BME280;9511;54.242;12.448;2024-03-08T11:00:32;102114.91;;;6.81;83.11
18765;BME280;9511;54.242;12.448;2024-03-08T11:02:59;102112.53;;;7.13;83.14
18765;BME280;9511;54.242;12.448;2024-03-08T11:05:37;102111.72;;;7.14;82.25
18765;BME280;9511;54.242;12.448;2024-03-08T11:08:16;102105.59;;;7.29;83.23
18765;BME280;9511;54.242;12.448;2024-03-08T11:10:48;102107.66;;;7.34;82.18
18765;BME280;9511;54.242;12.448;2024-03-08T11:13:33;102100.03;;;7.39;81.48
18765;BME280;9511;54.242;12.448;2024-03-08T11:16:01;102098.19;;;7.67;81.81
18765;BME280;9511;54.242;12.448;2024-03-08T11:18:32;102104.91;;;7.92;81.68
18765;BME280;9511;54.242;12.448;2024-03-08T11:21:04;102083.84;;;8.08;79.81
18765;BME280;9511;54.242;12.448;2024-03-08T11:23:32;102080.91;;;8.49;79.21
18765;BME280;9511;54.242;12.448;2024-03-08T11:26:00;102081.16;;;8.38;78.56
18765;BME280;9511;54.242;12.448;2024-03-08T11:28:27;102072.34;;;8.22;78.20
18765;BME280;9511;54.242;12.448;2024-03-08T11:31:27;102076.69;;;8.53;78.23
18765;BME280;9511;54.242;12.448;2024-03-08T11:33:55;102056.44;;;8.52;77.97
18765;BME280;9511;54.242;12.448;2024-03-08T11:36:25;102043.75;;;8.61;77.02
18765;BME280;9511;54.242;12.448;2024-03-08T11:38:52;102049.34;;;8.51;75.99
18765;BME280;9511;54.242;12.448;2024-03-08T11:41:22;102045.22;;;8.72;76.17
18765;BME280;9511;54.242;12.448;2024-03-08T11:44:05;102037.06;;;8.51;75.77
18765;BME280;9511;54.242;12.448;2024-03-08T11:46:33;102038.25;;;8.25;75.57
18765;BME280;9511;54.242;12.448;2024-03-08T11:49:00;102042.28;;;8.19;75.11
18765;BME280;9511;54.242;12.448;2024-03-08T11:51:29;102027.03;;;8.61;75.60
18765;BME280;9511;54.242;12.448;2024-03-08T11:53:56;102017.84;;;8.70;74.70
18765;BME280;9511;54.242;12.448;2024-03-08T11:56:23;102019.63;;;8.88;74.25
18765;BME280;9511;54.242;12.448;2024-03-08T11:58:55;102018.13;;;9.27;73.58
18765;BME280;9511;54.242;12.448;2024-03-08T12:01:23;102010.16;;;9.61;72.58
18765;BME280;9511;54.242;12.448;2024-03-08T12:03:52;102010.31;;;9.46;71.64
18765;BME280;9511;54.242;12.448;2024-03-08T12:06:20;102010.75;;;9.73;71.88
18765;BME280;9511;54.242;12.448;2024-03-08T12:08:48;101998.59;;;9.77;70.36
18765;BME280;9511;54.242;12.448;2024-03-08T12:11:17;101996.41;;;9.68;69.26
18765;BME280;9511;54.242;12.448;2024-03-08T12:13:48;101994.91;;;9.55;68.99
18765;BME280;9511;54.242;12.448;2024-03-08T12:16:17;101995.06;;;9.41;69.13
18765;BME280;9511;54.242;12.448;2024-03-08T12:18:45;101981.78;;;9.75;69.64
18765;BME280;9511;54.242;12.448;2024-03-08T12:21:12;101979.50;;;10.02;68.58
18765;BME280;9511;54.242;12.448;2024-03-08T12:23:44;101971.63;;;10.03;67.13
18765;BME280;9511;54.242;12.448;2024-03-08T12:26:14;101969.31;;;9.92;65.45
18765;BME280;9511;54.242;12.448;2024-03-08T12:28:43;101967.00;;;9.98;65.09
18765;BME280;9511;54.242;12.448;2024-03-08T12:31:12;101960.34;;;10.25;65.65
18765;BME280;9511;54.242;12.448;2024-03-08T12:33:49;101944.13;;;10.37;65.16
18765;BME280;9511;54.242;12.448;2024-03-08T12:36:17;101960.75;;;10.54;65.16
18765;BME280;9511;54.242;12.448;2024-03-08T12:38:46;101951.44;;;10.43;66.33
18765;BME280;9511;54.242;12.448;2024-03-08T12:41:15;101956.88;;;10.46;66.76
18765;BME280;9511;54.242;12.448;2024-03-08T12:43:43;101953.25;;;10.63;67.28
18765;BME280;9511;54.242;12.448;2024-03-08T12:46:14;101944.59;;;10.67;67.38
18765;BME280;9511;54.242;12.448;2024-03-08T12:48:42;101938.09;;;10.40;67.00
18765;BME280;9511;54.242;12.448;2024-03-08T12:51:12;101939.38;;;10.49;68.18
18765;BME280;9511;54.242;12.448;2024-03-08T12:53:40;101935.34;;;10.19;69.17
18765;BME280;9511;54.242;12.448;2024-03-08T12:56:10;101941.41;;;10.55;69.40
18765;BME280;9511;54.242;12.448;2024-03-08T12:58:38;101935.44;;;10.80;69.05